Time;durP1;ratioP1;P1;durP2;ratioP2;P2;SDS_P1;SDS_P2;PMS_P1;PMS_P2;Temp;Humidity;BMP_temperature;BMP_pressure;BME280_temperature;BME280_humidity;BME280_pressure;Samples;Min_cycle;Max_cycle;Signal;HPM_P1;HPM_P2
2023/03/14 00:00:54;;;;;;;23.25;4.78;;;;;;;9.29;84.08;98403.34;5036903;28;20192;-47
2023/03/14 00:03:19;;;;;;;22.05;4.90;;;;;;;9.26;84.16;98406.25;5038053;28;20567;-47
2023/03/14 00:05:45;;;;;;;20.98;4.75;;;;;;;9.17;84.42;98409.59;5034507;28;20183;-47
2023/03/14 00:08:11;;;;;;;24.60;4.78;;;;;;;9.20;84.45;98398.66;5036802;28;20192;-49
2023/03/14 00:10:37;;;;;;;22.15;4.88;;;;;;;9.18;84.73;98405.94;5037738;28;20196;-47
2023/03/14 00:13:03;;;;;;;25.20;4.75;;;;;;;9.14;84.83;98386.63;5032175;28;20279;-48
2023/03/14 00:15:28;;;;;;;25.65;4.25;;;;;;;9.15;85.06;98391.00;5036523;28;20282;-46
2023/03/14 00:17:54;;;;;;;24.25;4.85;;;;;;;9.14;85.19;98386.63;5039032;28;20647;-47
2023/03/14 00:20:20;;;;;;;24.25;4.88;;;;;;;9.04;85.51;98389.09;5024301;28;20183;-47
2023/03/14 00:22:45;;;;;;;25.65;4.60;;;;;;;9.13;85.71;98394.75;5036809;28;20910;-46
2023/03/14 00:25:11;;;;;;;20.20;4.78;;;;;;;9.05;86.13;98396.16;5035556;28;20192;-47
2023/03/14 00:27:38;;;;;;;26.08;5.25;;;;;;;9.02;86.27;98396.34;5036944;28;20199;-47
2023/03/14 00:30:07;;;;;;;18.13;4.43;;;;;;;9.01;86.38;98378.63;5037951;28;20190;-46
2023/03/14 00:32:33;;;;;;;23.45;4.50;;;;;;;9.09;87.00;98388.75;5036407;28;20263;-46
2023/03/14 00:34:59;;;;;;;24.48;4.82;;;;;;;9.06;87.13;98394.31;5023078;28;20294;-48
2023/03/14 00:37:27;;;;;;;18.85;4.30;;;;;;;9.10;87.24;98392.31;5018509;28;20188;-49
2023/03/14 00:39:52;;;;;;;24.95;5.05;;;;;;;9.02;87.52;98380.31;5038142;28;20781;-47
2023/03/14 00:42:18;;;;;;;25.27;4.47;;;;;;;9.01;87.72;98373.28;5022284;28;20253;-47
2023/03/14 00:44:43;;;;;;;24.73;4.35;;;;;;;9.06;88.05;98378.31;5035049;28;20298;-47
2023/03/14 00:47:09;;;;;;;22.90;4.30;;;;;;;9.03;87.96;98366.03;5036679;28;20547;-49
2023/03/14 00:49:35;;;;;;;24.20;4.50;;;;;;;9.00;88.24;98358.22;5005705;28;20196;-48
2023/03/14 00:52:00;;;;;;;24.65;4.55;;;;;;;9.04;88.42;98365.03;5021412;28;20194;-49
2023/03/14 00:54:26;;;;;;;21.88;4.13;;;;;;;9.03;88.35;98366.03;5021843;28;20230;-50
2023/03/14 00:56:52;;;;;;;22.08;4.70;;;;;;;9.03;88.30;98374.03;5021966;28;20199;-47
2023/03/14 00:59:17;;;;;;;26.50;4.63;;;;;;;9.01;88.56;98345.75;5027895;28;20179;-48
2023/03/14 01:01:43;;;;;;;22.10;4.63;;;;;;;8.98;88.59;98361.97;5036230;28;20644;-52
2023/03/14 01:04:09;;;;;;;25.27;4.55;;;;;;;8.96;88.82;98354.06;5038052;28;20207;-49
2023/03/14 01:06:35;;;;;;;21.77;4.18;;;;;;;8.89;89.08;98341.25;5038906;28;20666;-50
2023/03/14 01:09:00;;;;;;;23.52;4.72;;;;;;;8.90;89.18;98341.16;5043655;28;20184;-48
2023/03/14 01:11:32;;;;;;;21.67;4.22;;;;;;;8.85;89.37;98348.63;5026468;28;20199;-48
2023/03/14 01:13:58;;;;;;;19.63;4.28;;;;;;;8.90;89.53;98350.97;5018817;28;20207;-46
2023/03/14 01:16:26;;;;;;;27.50;4.25;;;;;;;8.87;89.71;98342.22;5040879;28;20534;-48
2023/03/14 01:18:52;;;;;;;26.42;4.38;;;;;;;8.97;89.69;98334.41;5038498;28;20475;-49
2023/03/14 01:21:24;;;;;;;23.63;4.40;;;;;;;8.91;89.72;98336.66;5046544;28;20672;-48
2023/03/14 01:23:52;;;;;;;19.80;4.10;;;;;;;8.88;89.67;98321.72;5029515;28;20247;-47
2023/03/14 01:26:22;;;;;;;19.38;4.20;;;;;;;8.86;89.67;98335.19;5029865;28;20184;-49
2023/03/14 01:28:50;;;;;;;28.17;4.78;;;;;;;8.83;89.86;98329.19;5032825;28;20188;-47
2023/03/14 01:31:16;;;;;;;24.38;4.82;;;;;;;8.82;89.97;98340.84;5018727;28;20219;-48
2023/03/14 01:33:42;;;;;;;23.70;4.50;;;;;;;8.75;90.34;98345.75;5023498;28;20231;-48
2023/03/14 01:36:10;;;;;;;20.45;4.05;;;;;;;8.83;90.30;98351.44;5019325;28;20258;-49
2023/03/14 01:38:37;;;;;;;23.85;3.97;;;;;;;8.77;90.38;98345.66;5026222;28;20219;-47
2023/03/14 01:41:04;;;;;;;22.17;4.55;;;;;;;8.78;90.46;98350.03;5019317;28;20196;-47
2023/03/14 01:43:30;;;;;;;17.25;3.63;;;;;;;8.81;90.32;98356.03;5029807;28;20591;-48
2023/03/14 01:46:05;;;;;;;21.48;4.60;;;;;;;8.82;90.29;98357.72;5032041;28;20551;-48
2023/03/14 01:48:49;;;;;;;21.20;4.88;;;;;;;8.81;90.40;98344.47;5030137;28;20677;-47
2023/03/14 01:51:21;;;;;;;24.70;4.05;;;;;;;8.81;90.30;98355.13;5025269;28;20191;-47
2023/03/14 01:53:49;;;;;;;21.80;5.00;;;;;;;8.80;90.42;98364.97;5023678;28;20705;-48
2023/03/14 01:56:18;;;;;;;23.67;4.93;;;;;;;8.85;90.54;98360.19;5021537;28;20215;-48
2023/03/14 01:58:46;;;;;;;18.65;4.22;;;;;;;8.82;90.34;98351.53;5029792;28;20187;-47
2023/03/14 02:01:14;;;;;;;25.48;3.92;;;;;;;8.93;90.27;98340.94;5039169;28;20187;-48
2023/03/14 02:03:53;;;;;;;21.60;4.78;;;;;;;8.94;90.21;98337.28;5037925;28;20257;-48
2023/03/14 02:06:25;;;;;;;22.25;4.10;;;;;;;8.97;90.50;98338.91;5030220;28;20270;-49
2023/03/14 02:08:52;;;;;;;25.33;4.97;;;;;;;8.90;90.26;98335.81;5032823;28;20190;-49
2023/03/14 02:11:28;;;;;;;24.67;4.63;;;;;;;8.86;90.47;98316.47;5022102;28;20195;-50
2023/03/14 02:14:24;;;;;;;23.55;4.50;;;;;;;8.90;90.65;98322.47;5040268;28;20203;-44
2023/03/14 02:17:18;;;;;;;23.45;4.00;;;;;;;8.87;90.66;98314.66;5035970;28;20773;-43
2023/03/14 02:20:10;;;;;;;24.75;4.75;;;;;;;8.87;90.67;98318.19;5043463;28;20245;-45
2023/03/14 02:22:43;;;;;;;18.38;4.28;;;;;;;8.84;90.74;98313.06;5034252;28;20234;-46
2023/03/14 02:25:18;;;;;;;19.98;4.05;;;;;;;8.83;90.88;98302.50;5023478;28;20179;-45
2023/03/14 02:27:46;;;;;;;19.90;4.13;;;;;;;8.82;90.84;98309.66;5023737;28;20183;-43
2023/03/14 02:30:25;;;;;;;25.42;4.00;;;;;;;8.87;91.02;98310.16;5025776;28;20275;-43
2023/03/14 02:33:19;;;;;;;20.00;4.15;;;;;;;8.77;91.26;98294.94;5035943;28;20187;-43
2023/03/14 02:35:56;;;;;;;26.88;4.00;;;;;;;8.82;91.21;98303.47;5027733;28;20789;-42
2023/03/14 02:38:33;;;;;;;21.55;4.40;;;;;;;8.87;91.30;98306.66;5028605;28;20198;-42
2023/03/14 02:41:02;;;;;;;18.33;4.20;;;;;;;8.79;91.46;98293.88;5025269;28;20190;-43
2023/03/14 02:43:31;;;;;;;23.80;5.00;;;;;;;8.84;91.59;98309.56;5023886;28;20232;-42
2023/03/14 02:46:03;;;;;;;22.50;4.63;;;;;;;8.78;91.49;98286.81;5019694;28;20179;-43
2023/03/14 02:48:45;;;;;;;21.08;4.72;;;;;;;8.79;91.82;98277.84;5025295;28;20263;-41
2023/03/14 02:51:12;;;;;;;19.52;4.50;;;;;;;8.78;91.90;98269.94;5017320;28;20183;-45
2023/03/14 02:53:38;;;;;;;26.08;4.97;;;;;;;8.74;91.96;98274.63;5024631;28;20713;-42
2023/03/14 02:56:10;;;;;;;19.70;3.67;;;;;;;8.70;92.37;98278.47;5022074;28;20217;-42
2023/03/14 02:58:37;;;;;;;21.08;4.47;;;;;;;8.65;92.73;98273.47;5024716;28;20242;-43
2023/03/14 03:01:17;;;;;;;23.40;4.13;;;;;;;8.73;92.93;98272.09;5027824;28;20187;-43
2023/03/14 03:03:43;;;;;;;22.10;4.28;;;;;;;8.71;92.94;98274.03;5021461;28;20291;-43
2023/03/14 03:06:09;;;;;;;18.90;3.90;;;;;;;8.65;93.23;98265.47;5025278;28;20196;-41
2023/03/14 03:08:35;;;;;;;18.70;4.20;;;;;;;8.76;93.31;98271.88;5038370;28;20183;-41
2023/03/14 03:11:01;;;;;;;21.30;4.40;;;;;;;8.70;93.33;98262.47;5021257;28;20216;-42
2023/03/14 03:13:28;;;;;;;17.98;3.78;;;;;;;8.64;93.47;98257.59;5029212;28;20222;-42
2023/03/14 03:15:55;;;;;;;22.63;3.35;;;;;;;8.72;93.78;98259.69;5029005;28;20674;-42
2023/03/14 03:18:21;;;;;;;17.25;4.22;;;;;;;8.72;94.04;98255.19;5024619;28;20287;-42
2023/03/14 03:20:47;;;;;;;20.48;3.80;;;;;;;8.68;94.34;98263.53;5023373;28;20199;-41
2023/03/14 03:23:13;;;;;;;20.33;4.57;;;;;;;8.70;94.48;98267.81;5036668;28;20299;-47
2023/03/14 03:25:38;;;;;;;17.95;3.40;;;;;;;8.76;94.84;98256.69;5037969;28;20176;-40
2023/03/14 03:28:07;;;;;;;19.17;3.85;;;;;;;8.78;94.98;98275.28;5007984;28;20733;-41
2023/03/14 03:30:40;;;;;;;20.77;4.45;;;;;;;8.85;95.16;98277.41;5037647;28;20233;-42
2023/03/14 03:33:05;;;;;;;14.50;3.38;;;;;;;8.86;95.34;98276.44;5034509;28;20207;-41
2023/03/14 03:35:31;;;;;;;19.02;4.88;;;;;;;8.95;95.48;98266.06;5021125;28;20195;-41
2023/03/14 03:37:57;;;;;;;18.05;4.25;;;;;;;8.87;95.65;98261.25;5021342;28;20198;-41
2023/03/14 03:40:23;;;;;;;16.38;4.03;;;;;;;8.85;95.93;98268.53;5023948;28;20279;-41
2023/03/14 03:42:48;;;;;;;18.27;3.97;;;;;;;8.82;96.20;98266.94;5028762;28;20788;-41
2023/03/14 03:45:15;;;;;;;20.48;4.35;;;;;;;8.86;96.87;98268.41;5034440;23;20288;-42
2023/03/14 03:47:49;;;;;;;19.17;3.97;;;;;;;8.89;97.27;98275.34;5017566;28;20245;-39
2023/03/14 03:50:15;;;;;;;14.88;3.85;;;;;;;8.89;97.46;98278.03;5013362;28;20180;-40
2023/03/14 03:52:40;;;;;;;17.88;4.38;;;;;;;9.02;97.92;98276.16;5025550;28;20191;-39
2023/03/14 03:55:06;;;;;;;17.67;3.83;;;;;;;9.04;98.12;98266.22;5011146;28;20211;-41
2023/03/14 03:57:32;;;;;;;14.20;3.65;;;;;;;9.06;98.34;98272.31;5009293;28;20667;-41
2023/03/14 03:59:58;;;;;;;14.73;4.03;;;;;;;9.15;98.94;98278.78;5027284;28;20186;-40
2023/03/14 04:02:23;;;;;;;8.70;3.00;;;;;;;9.23;99.49;98270.22;5028682;28;20219;-40
2023/03/14 04:04:50;;;;;;;16.73;4.28;;;;;;;9.25;100.00;98279.84;5010085;28;20207;-41
2023/03/14 04:07:16;;;;;;;12.48;4.20;;;;;;;9.22;100.00;98273.84;5001329;28;20556;-42
2023/03/14 04:09:43;;;;;;;13.38;3.97;;;;;;;9.19;100.00;98285.63;5000394;28;20624;-41
2023/03/14 04:12:37;;;;;;;14.43;4.80;;;;;;;9.25;100.00;98293.19;5001900;28;20628;-41
2023/03/14 04:15:12;;;;;;;15.60;5.70;;;;;;;9.25;100.00;98273.66;5009819;28;20195;-40
2023/03/14 04:17:43;;;;;;;12.70;5.57;;;;;;;9.16;100.00;98274.28;5007104;28;20193;-41
2023/03/14 04:20:10;;;;;;;9.00;4.95;;;;;;;9.09;100.00;98271.22;5023506;28;20271;-41
2023/03/14 04:22:37;;;;;;;12.57;5.32;;;;;;;9.02;100.00;98280.66;4994551;28;20279;-43
2023/03/14 04:25:04;;;;;;;8.90;5.25;;;;;;;8.98;100.00;98269.34;5026882;28;20271;-42
2023/03/14 04:27:33;;;;;;;13.43;6.22;;;;;;;8.94;100.00;98280.34;5009578;28;20265;-41
2023/03/14 04:30:00;;;;;;;11.68;5.35;;;;;;;8.86;100.00;98302.28;5026540;28;20188;-41
2023/03/14 04:32:45;;;;;;;9.90;5.10;;;;;;;8.82;100.00;98282.94;5008323;28;20185;-42
2023/03/14 04:35:11;;;;;;;11.68;5.15;;;;;;;8.78;100.00;98286.81;5028080;28;20225;-40
2023/03/14 04:37:36;;;;;;;9.30;4.47;;;;;;;8.65;100.00;98289.50;5028286;28;20246;-40
2023/03/14 04:40:06;;;;;;;10.63;4.72;;;;;;;8.61;100.00;98279.16;4995926;28;20212;-41
2023/03/14 04:42:32;;;;;;;11.02;5.60;;;;;;;8.58;100.00;98285.56;5017017;28;20299;-41
2023/03/14 04:44:58;;;;;;;14.98;5.35;;;;;;;8.51;100.00;98272.78;5031926;28;20227;-40
2023/03/14 04:47:25;;;;;;;7.22;4.80;;;;;;;8.41;100.00;98270.72;5013367;28;20275;-41
2023/03/14 04:49:52;;;;;;;11.38;5.30;;;;;;;8.41;100.00;98267.22;5010584;28;20223;-40
2023/03/14 04:52:18;;;;;;;9.63;4.43;;;;;;;8.39;100.00;98263.78;5012435;28;20176;-39
2023/03/14 04:54:44;;;;;;;11.55;4.85;;;;;;;8.38;100.00;98270.09;5028222;28;20702;-41
2023/03/14 04:57:09;;;;;;;10.65;4.50;;;;;;;8.34;100.00;98279.25;4998129;28;20187;-41
2023/03/14 04:59:37;;;;;;;10.70;4.78;;;;;;;8.33;100.00;98264.19;5016501;28;20191;-40
2023/03/14 05:02:21;;;;;;;10.15;4.50;;;;;;;8.25;100.00;98260.25;5015240;28;20188;-40
2023/03/14 05:05:20;;;;;;;9.40;4.70;;;;;;;8.20;100.00;98259.75;4975618;28;20235;-40
2023/03/14 05:08:00;;;;;;;8.48;4.30;;;;;;;8.22;100.00;98251.59;5028530;28;20219;-41
2023/03/14 05:10:44;;;;;;;12.60;4.32;;;;;;;8.18;100.00;98250.16;5033453;28;20207;-40
2023/03/14 05:13:30;;;;;;;12.38;3.17;;;;;;;8.14;100.00;98244.16;5032998;28;20199;-40
2023/03/14 05:16:22;;;;;;;10.68;3.25;;;;;;;8.08;100.00;98231.25;5002024;28;20215;-40
2023/03/14 05:19:17;;;;;;;6.07;3.05;;;;;;;8.05;100.00;98240.31;5028320;28;20670;-39
2023/03/14 05:22:00;;;;;;;10.38;3.72;;;;;;;8.03;100.00;98244.06;5019724;28;20192;-41
2023/03/14 05:24:44;;;;;;;10.65;3.65;;;;;;;8.00;100.00;98234.47;5032672;28;20246;-39
2023/03/14 05:27:33;;;;;;;6.85;3.33;;;;;;;8.02;100.00;98237.88;5003644;28;20408;-41
2023/03/14 05:30:21;;;;;;;7.53;3.58;;;;;;;7.98;100.00;98233.72;5031007;28;20191;-39
2023/03/14 05:33:22;;;;;;;7.93;3.60;;;;;;;7.87;100.00;98238.06;5026429;28;20588;-41
2023/03/14 05:36:13;;;;;;;6.78;3.78;;;;;;;7.81;100.00;98226.03;5026155;28;20596;-40
2023/03/14 05:38:58;;;;;;;11.30;3.30;;;;;;;7.80;100.00;98227.81;5001179;28;20195;-39
2023/03/14 05:41:27;;;;;;;7.13;3.00;;;;;;;7.70;100.00;98232.09;5033188;28;20188;-39
2023/03/14 05:44:10;;;;;;;8.32;3.33;;;;;;;7.68;100.00;98215.34;5032457;28;20226;-42
2023/03/14 05:46:55;;;;;;;6.40;2.50;;;;;;;7.66;100.00;98211.09;5032204;28;20242;-40
2023/03/14 05:49:43;;;;;;;3.53;2.60;;;;;;;7.59;100.00;98232.81;5012546;28;20199;-40
2023/03/14 05:52:16;;;;;;;7.03;2.53;;;;;;;7.51;100.00;98216.50;5030540;28;20180;-42
2023/03/14 05:55:03;;;;;;;8.63;2.85;;;;;;;7.50;100.00;98224.56;5031061;28;20314;-40
2023/03/14 05:57:47;;;;;;;6.13;2.30;;;;;;;7.45;100.00;98221.38;5032062;28;20542;-42
2023/03/14 06:00:38;;;;;;;12.15;2.42;;;;;;;7.43;100.00;98241.00;5023373;28;20293;-41
2023/03/14 06:03:17;;;;;;;8.43;2.40;;;;;;;7.48;100.00;98231.81;5014367;28;20204;-40
2023/03/14 06:05:49;;;;;;;7.47;2.58;;;;;;;7.45;100.00;98229.38;5030327;28;20192;-40
2023/03/14 06:08:14;;;;;;;9.20;2.50;;;;;;;7.49;100.00;98236.19;5031990;28;20192;-41
2023/03/14 06:10:40;;;;;;;10.57;2.63;;;;;;;7.48;100.00;98235.34;5014229;28;20188;-42
2023/03/14 06:13:05;;;;;;;11.38;2.85;;;;;;;7.43;100.00;98233.00;5013695;28;20203;-42
2023/03/14 06:15:33;;;;;;;6.63;2.28;;;;;;;7.46;100.00;98236.44;5013729;28;20212;-41
2023/03/14 06:17:58;;;;;;;5.70;2.20;;;;;;;7.51;100.00;98243.13;5013063;28;20238;-41
2023/03/14 06:20:25;;;;;;;9.15;2.83;;;;;;;7.48;100.00;98237.16;5009865;28;20658;-41
2023/03/14 06:22:52;;;;;;;14.77;3.00;;;;;;;7.51;100.00;98244.94;5002271;28;20723;-43
2023/03/14 06:25:17;;;;;;;9.35;2.85;;;;;;;7.55;100.00;98249.13;4997181;28;20184;-40
2023/03/14 06:27:46;;;;;;;8.77;2.88;;;;;;;7.66;100.00;98230.59;4995445;28;20184;-40
2023/03/14 06:30:11;;;;;;;13.60;2.83;;;;;;;7.74;100.00;98225.59;4994855;28;20180;-39
2023/03/14 06:32:37;;;;;;;11.20;3.33;;;;;;;7.79;100.00;98223.47;5005271;28;20306;-44
2023/03/14 06:35:08;;;;;;;12.30;3.17;;;;;;;7.91;100.00;98224.41;5028561;28;20250;-44
2023/03/14 06:37:37;;;;;;;11.18;2.88;;;;;;;7.94;100.00;98223.38;5005785;28;20200;-43
2023/03/14 06:40:05;;;;;;;12.20;3.85;;;;;;;7.94;100.00;98223.38;5012288;28;20238;-44
2023/03/14 06:42:47;;;;;;;13.55;4.20;;;;;;;8.08;100.00;98228.59;5012268;28;20183;-43
2023/03/14 06:45:14;;;;;;;9.90;3.45;;;;;;;8.14;100.00;98228.16;5027948;28;20184;-43
2023/03/14 06:47:41;;;;;;;10.73;4.28;;;;;;;8.14;100.00;98222.81;5006237;28;20224;-43
2023/03/14 06:50:08;;;;;;;10.98;4.22;;;;;;;8.14;100.00;98230.81;5011974;28;20180;-44
2023/03/14 06:52:35;;;;;;;13.02;3.75;;;;;;;8.08;100.00;98225.91;5012424;28;20274;-43
2023/03/14 06:55:01;;;;;;;10.18;3.83;;;;;;;8.15;100.00;98229.00;5028622;28;20200;-42
2023/03/14 06:57:28;;;;;;;10.23;4.05;;;;;;;8.14;100.00;98243.31;5028449;28;20184;-44
2023/03/14 06:59:54;;;;;;;13.40;4.22;;;;;;;8.11;100.00;98231.06;5010981;28;20200;-43
2023/03/14 07:02:20;;;;;;;15.93;4.78;;;;;;;8.15;100.00;98247.66;5028239;28;20195;-44
2023/03/14 07:04:46;;;;;;;10.57;4.72;;;;;;;8.22;100.00;98236.47;5009753;28;20290;-43
2023/03/14 07:07:11;;;;;;;12.23;4.22;;;;;;;8.23;100.00;98240.00;5004467;28;20305;-45
2023/03/14 07:09:37;;;;;;;7.90;3.78;;;;;;;8.23;100.00;98242.66;5024736;28;20197;-44
2023/03/14 07:12:04;;;;;;;11.70;3.70;;;;;;;8.30;100.00;98248.41;5011252;28;20238;-44
2023/03/14 07:14:30;;;;;;;11.00;4.25;;;;;;;8.35;100.00;98243.59;5012506;28;20582;-41
2023/03/14 07:16:56;;;;;;;13.07;4.05;;;;;;;8.40;100.00;98241.47;5030538;28;20156;-43
2023/03/14 07:19:21;;;;;;;9.43;3.75;;;;;;;8.36;100.00;98238.16;5012747;28;20203;-41
2023/03/14 07:21:47;;;;;;;10.75;3.92;;;;;;;8.34;100.00;98237.41;5013425;28;20287;-43
2023/03/14 07:24:15;;;;;;;10.20;3.60;;;;;;;8.34;100.00;98237.41;5012535;28;20204;-44
2023/03/14 07:26:41;;;;;;;8.35;3.78;;;;;;;8.30;100.00;98240.41;5012600;28;20761;-42
2023/03/14 07:29:07;;;;;;;9.50;3.33;;;;;;;8.31;100.00;98240.31;5030972;28;20185;-41
2023/03/14 07:31:33;;;;;;;7.38;3.22;;;;;;;8.30;100.00;98243.09;5011515;28;20180;-41
2023/03/14 07:33:59;;;;;;;9.73;3.72;;;;;;;8.31;100.00;98245.66;5012020;28;20196;-43
2023/03/14 07:36:29;;;;;;;7.72;3.38;;;;;;;8.25;100.00;98254.94;5011659;28;20219;-42
2023/03/14 07:38:54;;;;;;;8.35;3.03;;;;;;;8.27;100.00;98262.84;5030731;28;20615;-41
2023/03/14 07:41:58;;;;;;;8.43;3.58;;;;;;;8.22;100.00;98273.81;5007317;28;20187;-42
2023/03/14 07:44:24;;;;;;;10.75;3.47;;;;;;;8.22;100.00;98279.16;5007038;28;20212;-40
2023/03/14 07:46:49;;;;;;;8.43;3.00;;;;;;;8.25;100.00;98280.75;5009190;28;20385;-42
2023/03/14 07:49:15;;;;;;;11.30;4.47;;;;;;;8.29;100.00;98271.59;5010571;28;20169;-42
2023/03/14 07:51:40;;;;;;;10.10;3.55;;;;;;;8.21;100.00;98272.09;5010009;28;20169;-44
2023/03/14 07:54:06;;;;;;;13.38;3.90;;;;;;;8.25;100.00;98275.41;5010503;28;20219;-41
2023/03/14 07:56:31;;;;;;;10.32;3.35;;;;;;;8.26;100.00;98287.78;5010406;28;20243;-41
2023/03/14 07:58:57;;;;;;;8.88;3.72;;;;;;;8.25;100.00;98272.75;5010509;28;20234;-41
2023/03/14 08:01:23;;;;;;;7.32;3.35;;;;;;;8.37;100.00;98279.03;5010075;28;20693;-42
2023/03/14 08:03:48;;;;;;;12.23;3.20;;;;;;;8.33;100.00;98277.53;5008673;28;20200;-40
2023/03/14 08:06:14;;;;;;;8.40;3.00;;;;;;;8.38;100.00;98270.09;5008667;28;20223;-41
2023/03/14 08:08:40;;;;;;;9.43;3.22;;;;;;;8.37;100.00;98271.03;5008065;28;20380;-43
2023/03/14 08:11:08;;;;;;;6.25;3.60;;;;;;;8.41;100.00;98281.41;4991001;28;20189;-41
2023/03/14 08:13:34;;;;;;;8.02;3.25;;;;;;;8.49;100.00;98282.69;5008931;28;20263;-42
2023/03/14 08:16:00;;;;;;;7.03;2.92;;;;;;;8.49;100.00;98288.88;5012367;28;20659;-42
2023/03/14 08:18:26;;;;;;;9.60;3.20;;;;;;;8.40;100.00;98295.72;5013115;28;20168;-39
2023/03/14 08:20:51;;;;;;;9.50;3.30;;;;;;;8.35;100.00;98289.84;5013647;28;20536;-43
2023/03/14 08:23:17;;;;;;;10.90;3.20;;;;;;;8.33;100.00;98297.09;5012676;28;20240;-44
2023/03/14 08:25:43;;;;;;;7.63;3.35;;;;;;;8.20;100.00;98299.75;5012467;28;20275;-42
2023/03/14 08:28:08;;;;;;;10.02;3.47;;;;;;;8.20;100.00;98302.41;5013246;28;20165;-42
2023/03/14 08:30:34;;;;;;;7.53;3.50;;;;;;;8.17;100.00;98297.28;5012735;28;20173;-43
2023/03/14 08:32:59;;;;;;;12.25;4.20;;;;;;;8.20;100.00;98310.41;5012984;28;20197;-41
2023/03/14 08:35:26;;;;;;;6.15;4.05;;;;;;;8.16;100.00;98313.41;5012838;28;20506;-43
2023/03/14 08:37:52;;;;;;;12.63;3.65;;;;;;;8.15;100.00;98328.53;4995412;28;20572;-40
2023/03/14 08:40:18;;;;;;;7.07;3.90;;;;;;;8.12;100.00;98327.91;5013207;28;20223;-41
2023/03/14 08:42:45;;;;;;;8.02;3.97;;;;;;;8.08;100.00;98340.59;5012921;28;20631;-41
2023/03/14 08:45:13;;;;;;;7.57;3.97;;;;;;;8.11;100.00;98347.50;5020141;28;20275;-42
2023/03/14 08:47:38;;;;;;;10.02;4.07;;;;;;;8.11;100.00;98364.41;5032630;28;20218;-41
2023/03/14 08:50:06;;;;;;;6.57;3.58;;;;;;;8.09;100.00;98363.66;5032972;28;20638;-41
2023/03/14 08:52:32;;;;;;;6.45;3.30;;;;;;;8.10;100.00;98385.81;5032326;28;20168;-42
2023/03/14 08:54:58;;;;;;;8.35;3.55;;;;;;;7.96;100.00;98427.59;5032327;28;20299;-41
2023/03/14 08:57:27;;;;;;;4.60;0.93;;;;;;;7.45;100.00;98453.16;5031919;28;20168;-42
2023/03/14 08:59:56;;;;;;;9.43;1.58;;;;;;;6.77;100.00;98452.88;5032663;28;20271;-41
2023/03/14 09:02:23;;;;;;;13.68;11.68;;;;;;;5.91;100.00;98455.25;5033809;28;20631;-42
2023/03/14 09:04:52;;;;;;;4.95;1.60;;;;;;;4.74;100.00;98485.56;5033593;28;20188;-40
2023/03/14 09:07:18;;;;;;;4.10;1.00;;;;;;;4.09;100.00;98511.81;5033251;28;20545;-43
2023/03/14 09:09:44;;;;;;;6.75;1.60;;;;;;;3.59;100.00;98516.91;5033379;28;20179;-39
2023/03/14 09:12:10;;;;;;;8.30;2.00;;;;;;;3.47;100.00;98523.59;5033296;28;20710;-43
2023/03/14 09:14:35;;;;;;;6.22;1.40;;;;;;;3.26;100.00;98536.91;5032788;28;20219;-42
2023/03/14 09:17:02;;;;;;;6.18;1.13;;;;;;;3.12;100.00;98543.75;5033298;28;20168;-42
2023/03/14 09:19:28;;;;;;;13.60;1.85;;;;;;;3.21;100.00;98561.84;5033076;28;20642;-43
2023/03/14 09:21:54;;;;;;;10.60;1.90;;;;;;;3.06;100.00;98571.31;5033253;28;20313;-43
2023/03/14 09:24:20;;;;;;;8.18;1.90;;;;;;;3.10;100.00;98583.47;5033625;28;20200;-42
2023/03/14 09:26:46;;;;;;;9.95;1.50;;;;;;;2.92;100.00;98573.72;5031771;28;20224;-43
2023/03/14 09:29:12;;;;;;;7.07;1.40;;;;;;;2.97;100.00;98606.09;5033300;28;20247;-41
2023/03/14 09:31:37;;;;;;;6.70;1.20;;;;;;;3.20;100.00;98621.00;5033020;28;20164;-41
2023/03/14 09:34:03;;;;;;;4.45;1.00;;;;;;;2.94;100.00;98630.06;5032763;28;20188;-41
2023/03/14 09:36:30;;;;;;;9.52;1.73;;;;;;;2.86;100.00;98631.25;5033009;28;20214;-42
2023/03/14 09:38:55;;;;;;;4.53;0.90;;;;;;;3.03;100.00;98633.16;5032689;28;20696;-40
2023/03/14 09:41:34;;;;;;;8.38;1.40;;;;;;;3.01;100.00;98655.31;5032572;28;20164;-43
2023/03/14 09:44:03;;;;;;;4.20;1.17;;;;;;;2.90;100.00;98658.41;5032270;28;20246;-39
2023/03/14 09:46:31;;;;;;;8.07;1.20;;;;;;;2.53;100.00;98670.50;5031842;28;20182;-42
2023/03/14 09:48:57;;;;;;;3.05;1.00;;;;;;;2.73;100.00;98671.47;5032198;28;20680;-41
2023/03/14 09:51:23;;;;;;;7.07;1.35;;;;;;;2.98;100.00;98688.03;5073380;22;20223;-90
2023/03/14 09:53:51;;;;;;;4.65;1.30;;;;;;;3.12;100.00;98699.84;5043232;28;20188;-91
2023/03/14 09:56:27;;;;;;;9.20;1.30;;;;;;;3.13;100.00;98713.00;5021408;28;20490;-92
2023/03/14 09:59:13;;;;;;;4.57;1.58;;;;;;;2.52;100.00;98718.16;5036499;28;20194;-91
2023/03/14 10:01:45;;;;;;;5.18;1.15;;;;;;;2.62;100.00;98727.41;5001809;28;20180;-92
2023/03/14 10:04:43;;;;;;;5.05;1.20;;;;;;;2.48;100.00;98739.41;4985294;28;20199;-91
2023/03/14 10:07:43;;;;;;;8.77;1.55;;;;;;;2.52;100.00;98753.38;4980118;28;20426;-91
2023/03/14 10:10:58;;;;;;;;;;;;;;;;;;;;;
2023/03/14 10:14:08;;;;;;;4.57;1.42;;;;;;;2.71;100.00;98764.06;5003266;28;20187;-91
2023/03/14 10:16:46;;;;;;;4.68;1.42;;;;;;;3.14;100.00;98767.63;4999734;28;20266;-91
2023/03/14 10:19:22;;;;;;;7.88;1.15;;;;;;;3.23;100.00;98772.53;5001148;28;20218;-91
2023/03/14 10:21:56;;;;;;;4.10;1.38;;;;;;;3.34;100.00;98776.53;4988016;28;20180;-91
2023/03/14 10:24:25;;;;;;;3.55;1.08;;;;;;;3.48;100.00;98784.75;4987545;28;20634;-91
2023/03/14 10:26:58;;;;;;;4.00;1.20;;;;;;;3.61;100.00;98801.00;5001181;28;20202;-91
2023/03/14 10:29:26;;;;;;;6.50;1.40;;;;;;;3.78;100.00;98797.59;5004929;28;20684;-91
2023/03/14 10:31:55;;;;;;;4.93;1.00;;;;;;;3.68;100.00;98807.75;4999515;28;20676;-91
2023/03/14 10:34:27;;;;;;;4.15;1.10;;;;;;;3.80;100.00;98806.34;4997450;28;20272;-91
2023/03/14 10:36:59;;;;;;;5.45;1.45;;;;;;;3.98;100.00;98813.50;5002371;28;20201;-91
2023/03/14 10:39:30;;;;;;;3.67;0.90;;;;;;;4.13;100.00;98818.13;4996832;28;20215;-91
2023/03/14 10:42:05;;;;;;;2.88;0.95;;;;;;;4.11;100.00;98832.34;5001162;28;20207;-91
2023/03/14 10:44:32;;;;;;;4.93;1.10;;;;;;;3.88;100.00;98854.56;4996352;28;20255;-91
2023/03/14 10:47:03;;;;;;;6.97;1.13;;;;;;;4.21;100.00;98856.69;5001246;28;20184;-91
2023/03/14 10:49:38;;;;;;;4.00;1.13;;;;;;;4.10;100.00;98852.69;5013602;28;20193;-91
2023/03/14 10:52:24;;;;;;;6.10;1.38;;;;;;;4.11;100.00;98859.75;5010378;28;20325;-91
2023/03/14 10:55:03;;;;;;;10.35;1.60;;;;;;;4.27;100.00;98857.28;4988053;28;20224;-92
2023/03/14 10:57:28;;;;;;;5.25;1.17;;;;;;;4.21;100.00;98868.13;4999692;28;20207;-91
2023/03/14 10:59:58;;;;;;;10.88;1.70;;;;;;;4.38;100.00;98872.72;5007628;28;20287;-92
2023/03/14 11:02:36;;;;;;;5.97;1.20;;;;;;;4.34;100.00;98871.13;5012744;28;20210;-91
2023/03/14 11:05:14;;;;;;;6.57;1.23;;;;;;;4.37;100.00;98886.03;5008388;28;20188;-91
2023/03/14 11:07:52;;;;;;;6.40;1.10;;;;;;;4.35;100.00;98880.78;5015699;28;20669;-91
2023/03/14 11:10:37;;;;;;;8.55;1.15;;;;;;;4.63;100.00;98880.41;5001137;28;20222;-91
2023/03/14 11:13:32;;;;;;;7.55;1.20;;;;;;;4.96;100.00;98874.47;4998113;28;20326;-91
2023/03/14 11:16:05;;;;;;;7.85;1.40;;;;;;;5.12;100.00;98877.28;4992581;28;20216;-91
2023/03/14 11:18:51;;;;;;;9.57;1.60;;;;;;;4.89;100.00;98881.88;4994065;28;20637;-91
2023/03/14 11:21:35;;;;;;;6.07;1.67;;;;;;;4.84;100.00;98885.69;5014321;28;20282;-92
2023/03/14 11:24:25;;;;;;;7.57;1.35;;;;;;;4.92;100.00;98892.34;5000766;28;20556;-92
2023/03/14 11:27:12;;;;;;;9.35;1.33;;;;;;;4.84;100.00;98894.50;5007522;28;20571;-91
2023/03/14 11:32:17;;;;;;;10.73;1.73;;;;;;;5.09;100.00;98901.31;4978564;28;20833;-46
2023/03/14 11:34:49;;;;;;;7.43;1.60;;;;;;;4.89;100.00;98923.47;4979646;28;20240;-46
2023/03/14 11:37:27;;;;;;;9.07;1.50;;;;;;;5.12;100.00;98925.06;4982146;28;20220;-46
2023/03/14 11:40:13;;;;;;;9.02;1.92;;;;;;;5.00;100.00;98923.84;4981618;28;20223;-46
2023/03/14 11:42:43;;;;;;;7.30;1.38;;;;;;;5.00;100.00;98931.78;4982678;28;20186;-45
2023/03/14 11:45:26;;;;;;;5.22;1.73;;;;;;;5.12;100.00;98936.53;4985834;28;20171;-45
2023/03/14 11:48:24;;;;;;;10.65;1.67;;;;;;;5.10;100.00;98949.03;4980952;28;20189;-44
2023/03/14 11:50:52;;;;;;;8.25;1.35;;;;;;;4.91;100.00;98953.44;4974865;28;20184;-44
2023/03/14 11:53:34;;;;;;;7.03;1.50;;;;;;;5.09;100.00;98971.19;4982448;28;20288;-46